createdAt,value
2023-06-11T00:01:28.539Z,20.82
2023-06-11T00:03:56.246Z,20.80
2023-06-11T00:06:24.550Z,20.73
2023-06-11T00:08:53.962Z,20.69
2023-06-11T00:11:22.920Z,20.70
2023-06-11T00:13:51.362Z,20.67
2023-06-11T00:16:18.493Z,20.66
2023-06-11T00:18:46.223Z,20.72
2023-06-11T00:21:15.313Z,20.65
2023-06-11T00:23:42.496Z,20.60
2023-06-11T00:26:09.747Z,20.69
2023-06-11T00:28:37.736Z,20.63
2023-06-11T00:31:05.106Z,20.64
2023-06-11T00:33:32.209Z,20.63
2023-06-11T00:35:59.506Z,20.64
2023-06-11T00:38:26.465Z,20.62
2023-06-11T00:40:53.503Z,20.49
2023-06-11T00:43:24.216Z,20.55
2023-06-11T00:45:52.662Z,20.46
2023-06-11T00:48:21.205Z,20.28
2023-06-11T00:50:52.689Z,20.36
2023-06-11T00:53:22.911Z,20.30
2023-06-11T00:55:49.964Z,20.28
2023-06-11T00:58:18.433Z,20.27
2023-06-11T01:00:50.522Z,20.21
2023-06-11T01:03:27.947Z,20.04
2023-06-11T01:06:12.643Z,20.03
2023-06-11T01:08:41.384Z,19.85
2023-06-11T01:11:18.968Z,19.85
2023-06-11T01:13:46.792Z,19.99
2023-06-11T01:16:21.986Z,19.85
2023-06-11T01:19:04.467Z,20.00
2023-06-11T01:21:44.297Z,19.94
2023-06-11T01:24:22.912Z,19.67
2023-06-11T01:27:23.447Z,19.86
2023-06-11T01:29:51.224Z,19.77
2023-06-11T01:32:25.007Z,19.75
2023-06-11T01:35:02.347Z,19.70
2023-06-11T01:37:34.078Z,19.66
2023-06-11T01:40:01.793Z,19.66
2023-06-11T01:42:41.716Z,19.66
2023-06-11T01:45:09.590Z,19.67
2023-06-11T01:47:38.059Z,19.73
2023-06-11T01:50:06.856Z,19.74
2023-06-11T01:52:33.805Z,19.72
2023-06-11T01:55:01.348Z,19.70
2023-06-11T01:57:28.333Z,19.65
2023-06-11T01:59:55.384Z,19.57
2023-06-11T02:02:22.421Z,19.55
2023-06-11T02:04:49.378Z,19.55
2023-06-11T02:07:16.470Z,19.53
2023-06-11T02:09:43.507Z,19.45
2023-06-11T02:12:10.607Z,19.53
2023-06-11T02:14:37.593Z,19.53
2023-06-11T02:17:04.887Z,19.41
2023-06-11T02:19:35.691Z,19.53
2023-06-11T02:22:02.673Z,19.51
2023-06-11T02:24:29.660Z,19.43
2023-06-11T02:26:56.668Z,19.47
2023-06-11T02:29:23.601Z,19.34
2023-06-11T02:31:50.731Z,19.26
2023-06-11T02:34:18.213Z,19.27
2023-06-11T02:36:49.262Z,19.12
2023-06-11T02:39:16.307Z,19.18
2023-06-11T02:41:44.775Z,19.13
2023-06-11T02:44:11.752Z,19.13
2023-06-11T02:46:38.817Z,19.11
2023-06-11T02:49:06.563Z,19.09
2023-06-11T02:51:33.526Z,19.00
2023-06-11T02:54:00.545Z,18.90
2023-06-11T02:56:27.677Z,19.05
2023-06-11T02:58:54.605Z,19.06
2023-06-11T03:01:21.684Z,19.02
2023-06-11T03:03:48.875Z,19.03
2023-06-11T03:06:22.066Z,19.01
2023-06-11T03:08:49.374Z,18.84
2023-06-11T03:11:20.034Z,18.89
2023-06-11T03:13:48.105Z,18.86
2023-06-11T03:16:15.539Z,18.82
2023-06-11T03:18:43.999Z,18.90
2023-06-11T03:21:11.978Z,18.83
2023-06-11T03:23:39.203Z,18.71
2023-06-11T03:26:06.326Z,18.65
2023-06-11T03:28:39.668Z,18.64
2023-06-11T03:31:07.037Z,18.55
2023-06-11T03:33:34.095Z,18.66
2023-06-11T03:36:01.106Z,18.60
2023-06-11T03:38:28.128Z,18.59
2023-06-11T03:40:55.727Z,18.54
2023-06-11T03:43:29.875Z,18.50
2023-06-11T03:45:56.904Z,18.29
2023-06-11T03:48:23.899Z,18.42
2023-06-11T03:50:50.972Z,18.41
2023-06-11T03:53:17.936Z,18.43
2023-06-11T03:55:44.993Z,18.41
2023-06-11T03:58:12.402Z,18.23
2023-06-11T04:00:40.145Z,18.51
2023-06-11T04:03:07.506Z,18.48
2023-06-11T04:05:37.278Z,18.57
2023-06-11T04:08:05.681Z,18.62
2023-06-11T04:10:33.419Z,18.63
2023-06-11T04:13:00.617Z,18.59
2023-06-11T04:15:27.833Z,18.51
2023-06-11T04:17:56.817Z,18.63
2023-06-11T04:20:23.888Z,18.65
2023-06-11T04:22:52.348Z,18.48
2023-06-11T04:25:19.305Z,18.67
2023-06-11T04:27:48.299Z,18.66
2023-06-11T04:30:15.913Z,18.67
2023-06-11T04:32:46.010Z,18.69
2023-06-11T04:35:16.498Z,18.71
2023-06-11T04:37:46.826Z,18.74
2023-06-11T04:40:20.680Z,18.80
2023-06-11T04:42:48.168Z,18.88
2023-06-11T04:45:19.570Z,18.94
2023-06-11T04:47:47.842Z,18.85
2023-06-11T04:50:22.097Z,18.81
2023-06-11T04:52:53.693Z,18.84
2023-06-11T04:55:25.929Z,18.79
2023-06-11T04:57:56.071Z,18.89
2023-06-11T05:00:24.286Z,18.97
2023-06-11T05:02:53.017Z,18.97
2023-06-11T05:05:20.333Z,19.11
2023-06-11T05:07:47.312Z,18.78
2023-06-11T05:10:16.595Z,19.08
2023-06-11T05:12:43.777Z,19.04
2023-06-11T05:15:11.687Z,19.13
2023-06-11T05:17:39.321Z,19.11
2023-06-11T05:20:08.950Z,19.25
2023-06-11T05:22:36.399Z,19.34
2023-06-11T05:25:03.631Z,19.40
2023-06-11T05:27:30.907Z,19.36
2023-06-11T05:30:00.812Z,19.45
2023-06-11T05:32:32.237Z,19.61
2023-06-11T05:35:00.736Z,19.62
2023-06-11T05:37:27.748Z,19.67
2023-06-11T05:39:54.901Z,19.93
2023-06-11T05:42:23.388Z,20.02
2023-06-11T05:44:50.411Z,20.22
2023-06-11T05:47:17.538Z,20.33
2023-06-11T05:49:45.475Z,20.34
2023-06-11T05:52:12.485Z,20.26
2023-06-11T05:54:39.465Z,20.33
2023-06-11T05:57:11.829Z,20.33
2023-06-11T05:59:38.818Z,20.33
2023-06-11T06:02:06.653Z,20.46
2023-06-11T06:04:33.782Z,20.67
2023-06-11T06:07:00.787Z,20.85
2023-06-11T06:09:27.742Z,21.06
2023-06-11T06:11:55.610Z,21.14
2023-06-11T06:14:23.565Z,21.27
2023-06-11T06:16:51.906Z,21.32
2023-06-11T06:19:24.268Z,21.49
2023-06-11T06:21:51.626Z,21.52
2023-06-11T06:24:19.702Z,21.66
2023-06-11T06:26:46.786Z,21.72
2023-06-11T06:29:14.378Z,21.93
2023-06-11T06:31:42.171Z,22.15
2023-06-11T06:34:09.519Z,22.25
2023-06-11T06:36:40.017Z,22.29
2023-06-11T06:39:08.135Z,22.39
2023-06-11T06:41:35.153Z,22.44
2023-06-11T06:44:08.611Z,22.59
2023-06-11T06:51:31.316Z,22.93
2023-06-11T06:53:58.449Z,23.08
2023-06-11T06:56:25.888Z,23.23
2023-06-11T06:58:52.863Z,23.24
2023-06-11T07:01:23.025Z,23.25
2023-06-11T07:03:50.509Z,23.36
2023-06-11T07:06:19.190Z,23.41
2023-06-11T07:08:46.236Z,23.64
2023-06-11T07:11:16.212Z,23.79
2023-06-11T07:13:45.684Z,23.89
2023-06-11T07:16:12.891Z,23.80
2023-06-11T07:18:43.855Z,23.98
2023-06-11T07:21:10.980Z,24.05
2023-06-11T07:23:38.186Z,24.22
2023-06-11T07:26:06.207Z,24.34
2023-06-11T07:28:33.288Z,24.35
2023-06-11T07:31:01.154Z,24.53
2023-06-11T07:33:29.446Z,24.66
2023-06-11T07:35:58.051Z,24.76
2023-06-11T07:38:25.597Z,24.84
2023-06-11T07:40:53.333Z,25.02
2023-06-11T07:43:23.135Z,24.98
2023-06-11T07:45:50.150Z,25.25
2023-06-11T07:48:18.196Z,25.31
2023-06-11T07:50:46.488Z,25.38
2023-06-11T07:53:15.727Z,25.61
2023-06-11T07:55:43.246Z,25.84
2023-06-11T07:58:10.179Z,25.90
2023-06-11T08:00:37.142Z,25.86
2023-06-11T08:03:04.246Z,25.99
2023-06-11T08:05:31.453Z,25.91
2023-06-11T08:07:58.497Z,26.04
2023-06-11T08:10:25.726Z,26.22
2023-06-11T08:12:52.805Z,26.38
2023-06-11T08:15:20.741Z,26.53
2023-06-11T08:17:47.773Z,26.68
2023-06-11T08:20:17.394Z,26.61
2023-06-11T08:22:44.442Z,26.66
2023-06-11T08:25:12.204Z,26.75
2023-06-11T08:27:39.181Z,26.77
2023-06-11T08:30:07.901Z,26.93
2023-06-11T08:32:35.016Z,27.08
2023-06-11T08:35:02.109Z,26.96
2023-06-11T08:37:29.093Z,27.16
2023-06-11T08:39:56.157Z,27.36
2023-06-11T08:42:23.137Z,27.36
2023-06-11T08:44:50.362Z,27.35
2023-06-11T08:47:17.991Z,27.46
2023-06-11T08:49:46.215Z,27.81
2023-06-11T08:52:14.882Z,27.93
2023-06-11T08:54:41.906Z,28.27
2023-06-11T08:57:09.727Z,28.48
2023-06-11T08:59:36.735Z,28.58
2023-06-11T09:02:04.696Z,28.74
2023-06-11T09:04:31.947Z,28.93
2023-06-11T09:07:02.106Z,29.15
2023-06-11T09:09:29.264Z,28.86
2023-06-11T09:11:56.188Z,29.02
2023-06-11T09:14:23.267Z,29.06
2023-06-11T09:16:50.405Z,29.22
2023-06-11T09:19:21.665Z,29.32
2023-06-11T09:21:55.839Z,29.17
2023-06-11T09:24:25.107Z,29.36
2023-06-11T09:26:59.558Z,29.46
2023-06-11T09:29:28.562Z,29.49
2023-06-11T09:32:32.004Z,29.60
2023-06-11T09:34:57.703Z,29.67
2023-06-11T09:37:24.816Z,29.58
2023-06-11T09:39:51.953Z,29.70
2023-06-11T09:42:27.431Z,29.94
2023-06-11T09:45:02.197Z,30.09
2023-06-11T09:47:31.750Z,29.93
2023-06-11T09:49:59.790Z,30.08
2023-06-11T09:52:30.421Z,30.29
2023-06-11T09:54:58.823Z,30.33
2023-06-11T09:57:27.768Z,30.63
2023-06-11T09:59:55.211Z,30.52
2023-06-11T10:02:22.256Z,30.49
2023-06-11T10:04:49.427Z,30.76
2023-06-11T10:07:17.971Z,30.82
2023-06-11T10:09:47.218Z,31.02
2023-06-11T10:12:17.443Z,30.77
2023-06-11T10:14:52.940Z,30.50
2023-06-11T10:17:23.560Z,30.91
2023-06-11T10:19:52.836Z,31.00
2023-06-11T10:22:34.489Z,30.99
2023-06-11T10:25:03.696Z,31.20
2023-06-11T10:27:43.608Z,31.67
2023-06-11T10:30:11.398Z,31.95
2023-06-11T10:32:54.998Z,31.99
2023-06-11T10:35:25.381Z,32.13
2023-06-11T10:38:05.755Z,32.29
2023-06-11T10:40:34.009Z,32.11
2023-06-11T10:43:01.009Z,32.25
2023-06-11T10:45:37.174Z,32.17
2023-06-11T10:48:04.552Z,32.44
2023-06-11T10:50:33.133Z,32.14
2023-06-11T10:53:07.471Z,32.07
2023-06-11T10:55:35.431Z,32.08
2023-06-11T10:58:03.043Z,32.37
2023-06-11T11:00:35.214Z,32.47
2023-06-11T11:03:05.561Z,32.80
2023-06-11T11:05:33.154Z,33.06
2023-06-11T11:08:03.079Z,33.27
2023-06-11T11:10:30.413Z,33.30
2023-06-11T11:12:57.422Z,33.38
2023-06-11T11:15:24.404Z,33.42
2023-06-11T11:17:52.217Z,33.08
2023-06-11T11:20:20.985Z,33.07
2023-06-11T11:22:55.875Z,32.57
2023-06-11T11:25:25.054Z,32.65
2023-06-11T11:27:52.053Z,32.85
2023-06-11T11:30:19.334Z,33.08
2023-06-11T11:32:46.864Z,33.01
2023-06-11T11:35:16.096Z,32.92
2023-06-11T11:37:46.278Z,33.18
2023-06-11T11:40:14.244Z,32.97
2023-06-11T11:42:47.678Z,32.76
2023-06-11T11:45:17.435Z,33.00
2023-06-11T11:47:52.304Z,33.21
2023-06-11T11:50:26.933Z,33.46
2023-06-11T11:53:10.194Z,33.86
2023-06-11T11:58:13.765Z,33.72
2023-06-11T12:00:54.075Z,34.04
2023-06-11T12:03:23.434Z,33.90
2023-06-11T12:06:06.371Z,34.01
2023-06-11T12:08:34.843Z,33.28
2023-06-11T12:11:04.865Z,32.62
2023-06-11T12:13:32.161Z,32.35
2023-06-11T12:16:02.934Z,32.23
2023-06-11T12:18:31.395Z,32.30
2023-06-11T12:20:58.406Z,32.35
2023-06-11T12:23:25.418Z,31.94
2023-06-11T12:25:52.419Z,31.87
2023-06-11T12:28:19.672Z,32.07
2023-06-11T12:30:47.075Z,32.16
2023-06-11T12:33:14.190Z,32.09
2023-06-11T12:35:41.413Z,31.67
2023-06-11T12:38:08.420Z,32.31
2023-06-11T12:40:35.413Z,32.13
2023-06-11T12:43:02.415Z,32.50
2023-06-11T12:45:31.738Z,32.63
2023-06-11T12:47:58.861Z,32.14
2023-06-11T12:50:27.226Z,32.34
2023-06-11T12:52:56.107Z,32.61
2023-06-11T12:55:25.302Z,32.72
2023-06-11T12:57:52.385Z,32.99
2023-06-11T13:00:19.762Z,32.50
2023-06-11T13:02:46.850Z,32.61
2023-06-11T13:05:13.856Z,32.69
2023-06-11T13:07:40.837Z,32.74
2023-06-11T13:10:09.002Z,32.61
2023-06-11T13:12:36.219Z,32.31
2023-06-11T13:15:03.316Z,32.77
2023-06-11T13:17:30.438Z,32.97
2023-06-11T13:19:57.478Z,32.97
2023-06-11T13:22:24.422Z,33.15
2023-06-11T13:24:51.409Z,32.57
2023-06-11T13:27:18.457Z,32.65
2023-06-11T13:29:45.495Z,32.97
2023-06-11T13:32:12.735Z,32.81
2023-06-11T13:34:39.902Z,32.32
2023-06-11T13:37:07.157Z,32.12
2023-06-11T13:39:34.394Z,32.11
2023-06-11T13:42:01.709Z,32.05
2023-06-11T13:44:28.758Z,32.37
2023-06-11T13:46:55.842Z,32.49
2023-06-11T13:49:24.201Z,32.66
2023-06-11T13:51:52.855Z,32.65
2023-06-11T13:54:19.868Z,32.49
2023-06-11T13:56:47.489Z,32.42
2023-06-11T13:59:14.673Z,32.68
2023-06-11T14:01:41.618Z,33.02
2023-06-11T14:04:09.019Z,33.05
2023-06-11T14:06:37.826Z,32.66
2023-06-11T14:09:05.337Z,32.77
2023-06-11T14:11:32.524Z,32.16
2023-06-11T14:14:00.245Z,32.42
2023-06-11T14:16:28.492Z,32.07
2023-06-11T14:18:55.678Z,32.04
2023-06-11T14:21:22.705Z,32.02
2023-06-11T14:23:49.705Z,31.96
2023-06-11T14:26:16.699Z,31.95
2023-06-11T14:28:43.662Z,31.99
2023-06-11T14:31:12.174Z,31.91
2023-06-11T14:33:39.168Z,32.10
2023-06-11T14:36:07.286Z,32.37
2023-06-11T14:38:34.619Z,32.36
2023-06-11T14:41:01.845Z,31.96
2023-06-11T14:43:29.045Z,31.54
2023-06-11T14:45:56.029Z,31.24
2023-06-11T14:48:22.992Z,31.40
2023-06-11T14:50:50.014Z,31.23
2023-06-11T14:53:17.035Z,31.49
2023-06-11T14:55:44.460Z,31.42
2023-06-11T14:58:11.530Z,31.66
2023-06-11T15:00:38.488Z,31.87
2023-06-11T15:03:05.626Z,31.68
2023-06-11T15:05:32.720Z,31.72
2023-06-11T15:07:59.756Z,31.74
2023-06-11T15:10:28.253Z,31.54
2023-06-11T15:12:56.861Z,31.53
2023-06-11T15:15:24.083Z,31.65
2023-06-11T15:17:51.183Z,31.67
2023-06-11T15:20:18.362Z,31.71
2023-06-11T15:22:45.343Z,31.95
2023-06-11T15:25:12.579Z,31.92
2023-06-11T15:27:40.868Z,31.99
2023-06-11T15:30:08.522Z,32.09
2023-06-11T15:32:35.660Z,31.94
2023-06-11T15:35:03.048Z,31.90
2023-06-11T15:37:30.103Z,31.75
2023-06-11T15:39:57.128Z,31.57
2023-06-11T15:42:24.103Z,31.63
2023-06-11T15:44:51.119Z,31.54
2023-06-11T15:47:18.468Z,31.45
2023-06-11T15:49:45.656Z,31.47
2023-06-11T15:52:12.616Z,31.35
2023-06-11T15:54:39.649Z,31.33
2023-06-11T15:57:07.506Z,31.34
2023-06-11T15:59:34.574Z,31.30
2023-06-11T16:02:02.386Z,31.08
2023-06-11T16:04:32.824Z,31.21
2023-06-11T16:07:06.167Z,31.08
2023-06-11T16:09:34.336Z,30.97
2023-06-11T16:12:02.668Z,30.31
2023-06-11T16:14:29.638Z,30.54
2023-06-11T16:16:58.329Z,30.55
2023-06-11T16:19:26.042Z,30.35
2023-06-11T16:21:53.140Z,30.11
2023-06-11T16:24:20.136Z,30.31
2023-06-11T16:26:47.311Z,30.45
2023-06-11T16:29:14.690Z,30.51
2023-06-11T16:31:43.731Z,30.59
2023-06-11T16:34:11.148Z,30.62
2023-06-11T16:36:39.480Z,30.38
2023-06-11T16:39:21.761Z,30.36
2023-06-11T16:41:59.169Z,30.35
2023-06-11T16:44:26.277Z,30.36
2023-06-11T16:46:53.371Z,30.56
2023-06-11T16:49:21.098Z,30.50
2023-06-11T16:51:48.192Z,30.56
2023-06-11T16:54:16.696Z,30.49
2023-06-11T16:56:51.468Z,30.46
2023-06-11T16:59:18.442Z,30.30
2023-06-11T17:01:45.357Z,30.24
2023-06-11T17:04:12.556Z,30.13
2023-06-11T17:06:39.702Z,29.98
2023-06-11T17:09:06.693Z,30.11
2023-06-11T17:11:33.700Z,30.05
2023-06-11T17:14:00.696Z,29.93
2023-06-11T17:16:27.747Z,29.67
2023-06-11T17:18:57.804Z,29.68
2023-06-11T17:21:24.754Z,29.74
2023-06-11T17:23:51.812Z,29.55
2023-06-11T17:26:18.854Z,29.59
2023-06-11T17:28:45.880Z,29.60
2023-06-11T17:31:13.910Z,29.55
2023-06-11T17:33:41.142Z,29.55
2023-06-11T17:36:09.253Z,29.44
2023-06-11T17:38:36.223Z,29.13
2023-06-11T17:41:03.180Z,29.25
2023-06-11T17:43:30.219Z,29.17
2023-06-11T17:45:57.265Z,29.28
2023-06-11T17:48:24.435Z,29.20
2023-06-11T17:50:51.408Z,29.31
2023-06-11T17:53:18.369Z,29.39
2023-06-11T17:55:47.503Z,29.21
2023-06-11T17:58:15.907Z,29.23
2023-06-11T18:00:42.939Z,29.21
2023-06-11T18:03:10.225Z,29.17
2023-06-11T18:05:37.151Z,29.08
2023-06-11T18:08:04.255Z,28.91
2023-06-11T18:10:31.246Z,28.93
2023-06-11T18:12:58.193Z,28.89
2023-06-11T18:15:32.939Z,28.76
2023-06-11T18:18:04.339Z,28.80
2023-06-11T18:20:32.691Z,28.76
2023-06-11T18:23:00.000Z,28.53
2023-06-11T18:25:28.328Z,28.60
2023-06-11T18:27:55.442Z,28.52
2023-06-11T18:30:22.834Z,28.54
2023-06-11T18:32:50.290Z,28.46
2023-06-11T18:35:21.375Z,28.51
2023-06-11T18:37:48.455Z,28.53
2023-06-11T18:40:16.417Z,28.45
2023-06-11T18:42:43.550Z,28.44
2023-06-11T18:45:11.245Z,28.42
2023-06-11T18:47:40.338Z,28.49
2023-06-11T18:50:10.705Z,28.43
2023-06-11T18:52:38.703Z,28.39
2023-06-11T18:55:06.245Z,28.38
2023-06-11T18:57:36.077Z,28.30
2023-06-11T19:00:04.288Z,28.26
2023-06-11T19:02:31.367Z,28.21
2023-06-11T19:04:59.424Z,28.17
2023-06-11T19:07:26.857Z,28.07
2023-06-11T19:09:53.878Z,27.97
2023-06-11T19:12:20.877Z,27.92
2023-06-11T19:14:47.831Z,27.81
2023-06-11T19:17:15.010Z,27.70
2023-06-11T19:19:42.154Z,27.68
2023-06-11T19:22:09.099Z,27.59
2023-06-11T19:24:36.500Z,27.50
2023-06-11T19:27:03.604Z,27.40
2023-06-11T19:29:32.221Z,27.18
2023-06-11T19:31:59.298Z,27.24
2023-06-11T19:34:26.284Z,27.15
2023-06-11T19:36:53.238Z,27.06
2023-06-11T19:39:20.258Z,27.04
2023-06-11T19:41:47.165Z,26.96
2023-06-11T19:44:14.451Z,26.89
2023-06-11T19:46:41.543Z,26.80
2023-06-11T19:49:08.655Z,26.66
2023-06-11T19:51:35.678Z,26.66
2023-06-11T19:54:02.657Z,26.44
2023-06-11T19:56:29.700Z,26.50
2023-06-11T19:58:57.498Z,26.34
2023-06-11T20:01:25.184Z,26.36
2023-06-11T20:03:52.193Z,26.31
2023-06-11T20:06:19.117Z,26.20
2023-06-11T20:08:46.242Z,26.12
2023-06-11T20:11:13.201Z,26.15
2023-06-11T20:13:45.620Z,26.05
2023-06-11T20:16:13.355Z,25.93
2023-06-11T20:18:41.443Z,25.83
2023-06-11T20:21:08.956Z,25.64
2023-06-11T20:23:36.260Z,25.59
2023-06-11T20:26:03.995Z,25.46
2023-06-11T20:28:31.272Z,25.54
2023-06-11T20:30:58.275Z,25.33
2023-06-11T20:33:25.935Z,25.36
2023-06-11T20:35:53.012Z,25.25
2023-06-11T20:38:20.123Z,25.14
2023-06-11T20:40:47.141Z,25.04
2023-06-11T20:43:14.188Z,24.99
2023-06-11T20:45:48.555Z,24.96
2023-06-11T20:48:25.091Z,24.87
2023-06-11T20:50:52.482Z,24.78
2023-06-11T20:53:33.289Z,24.75
2023-06-11T20:56:02.011Z,24.55
2023-06-11T20:58:28.986Z,24.52
2023-06-11T21:00:56.188Z,24.50
2023-06-11T21:03:23.508Z,24.37
2023-06-11T21:05:51.221Z,24.39
2023-06-11T21:08:21.714Z,24.21
2023-06-11T21:10:49.020Z,24.11
2023-06-11T21:13:16.336Z,24.05
2023-06-11T21:15:43.927Z,23.93
2023-06-11T21:18:13.949Z,23.92
2023-06-11T21:20:41.223Z,24.00
2023-06-11T21:23:08.286Z,23.92
2023-06-11T21:25:35.781Z,23.90
2023-06-11T21:28:02.821Z,23.80
2023-06-11T21:30:29.832Z,23.74
2023-06-11T21:32:56.934Z,23.71
2023-06-11T21:35:23.954Z,23.65
2023-06-11T21:37:50.891Z,23.62
2023-06-11T21:40:18.090Z,23.58
2023-06-11T21:42:45.089Z,23.39
2023-06-11T21:45:12.069Z,23.39
2023-06-11T21:47:39.216Z,23.25
2023-06-11T21:50:07.030Z,23.27
2023-06-11T21:52:38.167Z,23.20
2023-06-11T21:55:08.658Z,23.35
2023-06-11T21:57:35.949Z,23.48
2023-06-11T22:00:07.765Z,23.38
2023-06-11T22:02:55.030Z,23.55
2023-06-11T22:05:22.059Z,23.50
2023-06-11T22:07:49.882Z,23.29
2023-06-11T22:10:16.868Z,23.23
2023-06-11T22:12:44.465Z,23.11
2023-06-11T22:15:13.857Z,22.99
2023-06-11T22:17:41.178Z,22.85
2023-06-11T22:20:11.485Z,22.67
2023-06-11T22:22:41.818Z,22.48
2023-06-11T22:25:11.434Z,22.35
2023-06-11T22:27:41.641Z,22.04
2023-06-11T22:30:10.766Z,21.72
2023-06-11T22:32:38.151Z,21.90
2023-06-11T22:35:05.777Z,21.80
2023-06-11T22:37:34.998Z,21.81
2023-06-11T22:40:03.725Z,21.86
2023-06-11T22:42:30.753Z,21.81
2023-06-11T22:44:57.693Z,21.87
2023-06-11T22:47:24.721Z,21.71
2023-06-11T22:49:51.746Z,21.65
2023-06-11T22:52:19.405Z,21.65
2023-06-11T22:54:46.940Z,21.54
2023-06-11T22:57:13.912Z,21.52
2023-06-11T22:59:40.877Z,21.54
2023-06-11T23:02:08.113Z,21.41
2023-06-11T23:04:35.112Z,21.35
2023-06-11T23:07:03.517Z,21.26
2023-06-11T23:09:30.971Z,21.24
2023-06-11T23:11:57.962Z,21.25
2023-06-11T23:14:24.967Z,21.23
2023-06-11T23:16:52.680Z,21.21
2023-06-11T23:19:23.681Z,21.23
2023-06-11T23:21:51.879Z,21.24
2023-06-11T23:24:21.863Z,21.21
2023-06-11T23:26:51.242Z,21.13
2023-06-11T23:29:18.305Z,21.00
2023-06-11T23:31:45.249Z,20.89
2023-06-11T23:34:13.733Z,20.88
2023-06-11T23:36:41.337Z,20.75
2023-06-11T23:39:12.218Z,20.63
2023-06-11T23:41:39.183Z,20.61
2023-06-11T23:44:06.130Z,20.70
2023-06-11T23:46:37.106Z,20.58
2023-06-11T23:49:04.336Z,20.60
2023-06-11T23:51:33.295Z,20.50
2023-06-11T23:54:00.854Z,20.50
2023-06-11T23:56:27.854Z,20.39
2023-06-11T23:58:54.881Z,20.40
